Hakalau, Hawaii
Current Conditions -  °F | °C
As of 4:53 PM on Monday 26 Jan 2015 (Local Time) from PHTO Reporting Station
Overcast Overcast  
Wind Chill: 75°   Ceiling: 5500
Heat Index: 75°   Visibility: 10mi
Dew Point: 62°   Wind: 8mph
Humidity: 64%   Direction: 50°NE
Pressure: 29.93"   Gusts: NA
Location:  19.9°N, 155.13°W
Report Text: PHTO 270253Z 05007KT 10SM FEW034 OVC055 24/17 A2993 RMK AO2 SLP134 T02390167 55001
Loading
Personal Weather Stations






























Interactive Weather Map New forecast layout! Learn more

10-Day Weather Forecast

Advertisements
Track Severe Weather on mobile